Список аэропортов
Фактическая погода:

25 июня, 11:20
Температура: +19°C (+19.0*)
Ветер: западный 4 м/с
Давление: *763 мм
неб. 480 м
неб. облачность
кучевые 900 м
разорв. обл.
1950 м
слаб. ливневый дождь
Время (МСК)Темп. СВетерВлажностьДавлениеОблачностьОсадки
09:00+18З, 1 м/с90%1015 гПаоблачно
10:00+19З, 1 м/с85%1014 гПаоблачносл. дождь
11:00+20З, 1 м/с80%1014 гПаоблачнодождь
12:00+22СЗ, 3 м/с65%1014 гПаоблачносл. дождь
13:00+22СЗ, 4 м/с55%1014 гПаоблачно
14:00+22СЗ, 4 м/с52%1014 гПаоблачно
15:00+23З, 3 м/с51%1014 гПаоблачно
16:00+24З, 4 м/с49%1013 гПаоблачно
17:00+24З, 5 м/с47%1013 гПаоблачно
18:00+23З, 4 м/с47%1012 гПаоблачно
19:00+24З, 3 м/с47%1012 гПаоблачно
20:00+23З, 3 м/с44%1013 гПаоблачно
21:00+23З, 3 м/с47%1013 гПаоблачно
22:00+22З, 2 м/с55%1013 гПас прояснениями
23:00+20ЮЗ, 2 м/с64%1013 гПас прояснениями
26 июня
00:00+20ЮЗ, 2 м/с72%1014 гПас прояснениями
01:00+19ЮЗ, 2 м/с76%1014 гПаоблачно
02:00+19З, 2 м/с78%1014 гПаоблачно
03:00+19З, 2 м/с81%1014 гПаоблачно
04:00+19З, 2 м/с78%1014 гПаоблачно
05:00+18З, 2 м/с76%1014 гПас прояснениями
06:00+18З, 2 м/с73%1014 гПаоблачно
07:00+18З, 2 м/с74%1015 гПас прояснениями
08:00+18З, 2 м/с74%1015 гПас прояснениями
09:00+19З, 3 м/с66%1015 гПаоблачно
10:00+20З, 3 м/с60%1014 гПас прояснениями
11:00+22З, 3 м/с52%1014 гПамалооблачно
12:00+23З, 3 м/с51%1014 гПамалооблачно
13:00+25З, 3 м/с49%1013 гПаоблачно
14:00+25З, 4 м/с45%1013 гПаоблачно
15:00+26З, 4 м/с43%1012 гПаоблачно
16:00+27З, 4 м/с41%1012 гПамалооблачно
17:00+27З, 4 м/с40%1012 гПаоблачно
18:00+27З, 4 м/с40%1011 гПаоблачно
19:00+27З, 3 м/с40%1011 гПаоблачно
20:00+27З, 3 м/с42%1011 гПаясно
21:00+26СЗ, 3 м/с43%1012 гПаоблачно
22:00+23С, 2 м/с57%1012 гПаясно
23:00+22С, 3 м/с63%1012 гПаоблачно
27 июня
00:00+21СВ, 2 м/с69%1013 гПаоблачно
01:00+20СВ, 2 м/с74%1013 гПаоблачно
02:00+19СВ, 2 м/с77%1013 гПаоблачно
03:00+18СВ, 1 м/с83%1013 гПаоблачно
04:00+18СВ, 1 м/с82%1013 гПаоблачно
05:00+17В, 1 м/с82%1013 гПаоблачно
06:00+17В, 1 м/с86%1013 гПаоблачно
07:00+17СВ, 1 м/с86%1013 гПаоблачно
08:00+17СВ, 2 м/с83%1013 гПаоблачно
09:00+18СВ, 2 м/с78%1013 гПаоблачно